Time;durP1;ratioP1;P1;durP2;ratioP2;P2;SDS_P1;SDS_P2;PMS_P1;PMS_P2;Temp;Humidity;BMP_temperature;BMP_pressure;BME280_temperature;BME280_humidity;BME280_pressure;Samples;Min_cycle;Max_cycle;Signal;HPM_P1;HPM_P2
2021/01/23 00:00:44;;;;;;;14.70;11.50;;;5.40;99.90;;;;;;5008551;28;20615;-66
2021/01/23 00:03:31;;;;;;;18.93;13.50;;;5.40;99.90;;;;;;5002654;28;21479;-65
2021/01/23 00:06:16;;;;;;;20.63;13.33;;;5.40;99.90;;;;;;5002827;28;20591;-66
2021/01/23 00:09:00;;;;;;;17.97;14.43;;;5.30;99.90;;;;;;4991183;28;20666;-66
2021/01/23 00:11:47;;;;;;;17.00;12.70;;;5.10;99.90;;;;;;4992625;28;21174;-66
2021/01/23 00:14:35;;;;;;;16.20;12.67;;;5.20;99.90;;;;;;5001477;28;20743;-65
2021/01/23 00:17:20;;;;;;;15.73;12.90;;;5.20;99.90;;;;;;5004320;28;20623;-66
2021/01/23 00:20:05;;;;;;;18.40;14.07;;;5.20;99.90;;;;;;4980831;28;20644;-67
2021/01/23 00:22:50;;;;;;;18.93;13.23;;;5.30;99.90;;;;;;5000901;28;20628;-66
2021/01/23 00:25:35;;;;;;;19.90;14.23;;;5.20;99.90;;;;;;5018041;28;20639;-65
2021/01/23 00:28:20;;;;;;;18.00;14.00;;;5.20;99.90;;;;;;5023856;28;20678;-67
2021/01/23 00:31:07;;;;;;;20.90;14.27;;;5.20;99.90;;;;;;5008051;28;21200;-65
2021/01/23 00:33:51;;;;;;;17.03;13.50;;;5.20;99.90;;;;;;5007820;28;21153;-65
2021/01/23 00:36:36;;;;;;;17.90;14.33;;;5.20;99.90;;;;;;5006560;28;21290;-66
2021/01/23 00:39:21;;;;;;;19.97;15.37;;;5.20;99.90;;;;;;5009079;28;20675;-63
2021/01/23 00:42:05;;;;;;;18.33;13.80;;;5.20;99.90;;;;;;5014969;28;20591;-65
2021/01/23 00:44:49;;;;;;;18.80;14.07;;;5.20;99.90;;;;;;5003637;28;21261;-67
2021/01/23 00:47:34;;;;;;;21.17;14.73;;;5.20;99.90;;;;;;5011784;28;20631;-65
2021/01/23 00:50:21;;;;;;;21.20;14.10;;;5.10;99.90;;;;;;5007580;28;20622;-65
2021/01/23 00:53:06;;;;;;;18.87;13.93;;;5.20;99.90;;;;;;5007340;28;20619;-67
2021/01/23 00:55:52;;;;;;;17.60;14.87;;;5.10;99.90;;;;;;5005934;28;20643;-66
2021/01/23 00:58:37;;;;;;;17.90;14.43;;;5.10;99.90;;;;;;5008755;28;20996;-64
2021/01/23 01:01:22;;;;;;;18.27;14.10;;;5.10;99.90;;;;;;5007331;28;20600;-67
2021/01/23 01:04:09;;;;;;;18.57;14.27;;;5.20;99.90;;;;;;5003696;28;20627;-68
2021/01/23 01:06:53;;;;;;;20.97;14.57;;;5.10;99.90;;;;;;5001025;28;20619;-66
2021/01/23 01:09:40;;;;;;;18.80;14.47;;;5.10;99.90;;;;;;5007619;28;20748;-66
2021/01/23 01:12:25;;;;;;;22.70;16.20;;;5.10;99.90;;;;;;5008582;28;21166;-67
2021/01/23 01:15:10;;;;;;;18.40;14.00;;;5.00;99.90;;;;;;5005653;28;20741;-65
2021/01/23 01:17:55;;;;;;;20.97;14.47;;;5.00;99.90;;;;;;5004133;28;20698;-65
2021/01/23 01:20:39;;;;;;;18.53;14.57;;;5.10;99.90;;;;;;5015841;28;20698;-66
2021/01/23 01:23:24;;;;;;;20.47;14.37;;;5.10;99.90;;;;;;5006513;28;20623;-65
2021/01/23 01:26:09;;;;;;;17.70;14.13;;;5.10;99.90;;;;;;5012079;28;21102;-66
2021/01/23 01:28:54;;;;;;;22.30;16.00;;;5.10;99.90;;;;;;5008220;28;21090;-66
2021/01/23 01:31:38;;;;;;;19.70;15.40;;;5.10;99.90;;;;;;5004740;28;21233;-66
2021/01/23 01:34:22;;;;;;;20.57;15.90;;;5.00;99.90;;;;;;5000310;28;20751;-67
2021/01/23 01:37:07;;;;;;;21.20;15.10;;;5.00;99.90;;;;;;5005353;28;20595;-65
2021/01/23 01:39:54;;;;;;;19.67;15.63;;;5.00;99.90;;;;;;5009099;28;20616;-66
2021/01/23 01:42:38;;;;;;;21.93;15.67;;;5.00;99.90;;;;;;5004253;28;20954;-66
2021/01/23 01:45:23;;;;;;;21.50;16.00;;;5.00;99.90;;;;;;4990989;28;20631;-66
2021/01/23 01:48:11;;;;;;;21.20;15.33;;;5.00;99.90;;;;;;5003373;28;20667;-64
2021/01/23 01:50:57;;;;;;;17.63;14.10;;;5.00;99.90;;;;;;5013527;28;20601;-68
2021/01/23 01:53:44;;;;;;;18.97;15.63;;;5.00;99.90;;;;;;5005013;28;20639;-66
2021/01/23 01:56:28;;;;;;;19.43;16.20;;;5.00;99.90;;;;;;5007855;28;20735;-65
2021/01/23 01:59:13;;;;;;;19.67;16.10;;;5.00;99.90;;;;;;5002717;28;20678;-66
2021/01/23 02:02:13;;;;;;;24.00;16.60;;;5.00;99.90;;;;;;5006378;28;20572;-64
2021/01/23 02:05:29;;;;;;;23.03;16.53;;;5.00;99.90;;;;;;5004661;28;20635;-66
2021/01/23 02:08:57;;;;;;;24.87;16.30;;;5.00;99.90;;;;;;5023613;22;20651;-65
2021/01/23 02:12:20;;;;;;;21.97;16.83;;;5.00;99.90;;;;;;5032028;28;20602;-67
2021/01/23 02:15:18;;;;;;;24.07;16.30;;;5.00;99.90;;;;;;5026585;28;20721;-66
2021/01/23 02:18:06;;;;;;;21.20;15.67;;;4.90;99.90;;;;;;5026699;28;20634;-66
2021/01/23 02:21:16;;;;;;;22.73;16.67;;;4.90;99.90;;;;;;5030491;28;20670;-66
2021/01/23 02:24:06;;;;;;;22.00;16.73;;;5.00;99.90;;;;;;5025525;28;20690;-65
2021/01/23 02:27:17;;;;;;;20.30;15.63;;;4.90;99.90;;;;;;5020369;28;20743;-67
2021/01/23 02:30:18;;;;;;;22.43;16.07;;;5.00;99.90;;;;;;5009939;28;20659;-66
2021/01/23 02:33:06;;;;;;;23.00;15.13;;;5.00;99.90;;;;;;5011299;28;20591;-66
2021/01/23 02:35:52;;;;;;;21.73;15.43;;;5.00;99.90;;;;;;5005318;28;20643;-66
2021/01/23 02:38:37;;;;;;;27.77;16.53;;;5.00;99.90;;;;;;5009950;28;21029;-67
2021/01/23 02:41:25;;;;;;;20.97;16.03;;;5.00;99.90;;;;;;5015307;28;20618;-66
2021/01/23 02:44:10;;;;;;;21.80;15.67;;;5.00;99.90;;;;;;5011423;28;20636;-67
2021/01/23 02:46:55;;;;;;;22.93;17.60;;;5.00;99.90;;;;;;5017525;28;20717;-67
2021/01/23 02:49:40;;;;;;;23.13;16.20;;;5.00;99.90;;;;;;5032196;28;21233;-66
2021/01/23 02:52:35;;;;;;;22.10;17.00;;;5.00;99.90;;;;;;5015306;28;20619;-66
2021/01/23 02:55:23;;;;;;;24.10;16.77;;;5.00;99.90;;;;;;5006605;28;21007;-66
2021/01/23 02:58:12;;;;;;;28.17;17.47;;;5.00;99.90;;;;;;5017077;28;20748;-66
2021/01/23 03:01:02;;;;;;;22.63;17.10;;;5.00;99.90;;;;;;5016055;28;20666;-66
2021/01/23 03:03:48;;;;;;;23.80;16.37;;;5.00;99.90;;;;;;5022244;28;20803;-67
2021/01/23 03:06:35;;;;;;;23.73;17.60;;;5.00;99.90;;;;;;5022596;28;20682;-66
2021/01/23 03:09:27;;;;;;;28.07;17.40;;;5.00;99.90;;;;;;5023339;28;20673;-65
2021/01/23 03:12:14;;;;;;;25.43;17.43;;;5.00;99.90;;;;;;5020127;28;21243;-65
2021/01/23 03:14:59;;;;;;;21.90;16.70;;;5.00;99.90;;;;;;5010687;28;20639;-67
2021/01/23 03:17:43;;;;;;;19.70;15.17;;;5.00;99.90;;;;;;5016064;28;20747;-64
2021/01/23 03:20:31;;;;;;;23.00;17.53;;;5.00;99.90;;;;;;5023667;28;20645;-65
2021/01/23 03:23:15;;;;;;;25.57;17.00;;;5.00;99.90;;;;;;5009661;28;20611;-65
2021/01/23 03:26:00;;;;;;;28.17;18.23;;;5.00;99.90;;;;;;5021513;28;20971;-67
2021/01/23 03:28:44;;;;;;;24.70;17.60;;;5.10;99.90;;;;;;5009497;28;20654;-64
2021/01/23 03:31:29;;;;;;;24.50;17.53;;;5.10;99.90;;;;;;5009055;28;20600;-64
2021/01/23 03:34:13;;;;;;;28.27;17.67;;;5.10;99.90;;;;;;5021114;28;20623;-67
2021/01/23 03:36:58;;;;;;;21.87;15.93;;;5.20;99.90;;;;;;5018174;28;20925;-65
2021/01/23 03:39:43;;;;;;;24.37;16.63;;;5.20;99.90;;;;;;5017522;28;20992;-64
2021/01/23 03:42:27;;;;;;;22.10;16.47;;;5.20;99.90;;;;;;5018221;28;20619;-65
2021/01/23 03:45:12;;;;;;;27.03;17.00;;;5.10;99.90;;;;;;5010365;28;20639;-65
2021/01/23 03:47:57;;;;;;;24.87;17.50;;;5.10;99.90;;;;;;5010950;28;21093;-64
2021/01/23 03:50:43;;;;;;;22.70;17.10;;;5.10;99.90;;;;;;4997146;28;20636;-64
2021/01/23 03:53:28;;;;;;;24.87;18.03;;;5.10;99.90;;;;;;5004182;28;20638;-65
2021/01/23 03:56:12;;;;;;;23.47;17.67;;;5.10;99.90;;;;;;5029761;28;20643;-65
2021/01/23 03:58:57;;;;;;;22.63;17.43;;;5.20;99.90;;;;;;5012234;28;20976;-64
2021/01/23 04:01:42;;;;;;;24.73;16.87;;;5.10;99.90;;;;;;4996377;28;20580;-64
2021/01/23 04:04:27;;;;;;;23.77;17.67;;;5.20;99.90;;;;;;5008150;28;21042;-65
2021/01/23 04:07:12;;;;;;;25.00;18.10;;;5.20;99.90;;;;;;5014261;28;20594;-64
2021/01/23 04:09:56;;;;;;;29.87;18.20;;;5.20;99.90;;;;;;5011819;28;20761;-65
2021/01/23 04:12:41;;;;;;;25.83;18.20;;;5.20;99.90;;;;;;5031113;28;21114;-66
2021/01/23 04:15:26;;;;;;;26.20;17.43;;;5.20;99.90;;;;;;5021278;28;20678;-65
2021/01/23 04:18:11;;;;;;;22.37;16.83;;;5.20;99.90;;;;;;5009598;28;20714;-66
2021/01/23 04:20:57;;;;;;;24.10;17.90;;;5.20;99.90;;;;;;5015595;28;20666;-66
2021/01/23 04:23:44;;;;;;;31.90;17.60;;;5.20;99.90;;;;;;5004012;28;20634;-65
2021/01/23 04:26:29;;;;;;;21.67;16.00;;;5.20;99.90;;;;;;5014183;28;20968;-65
2021/01/23 04:29:14;;;;;;;21.03;17.07;;;5.20;99.90;;;;;;5020870;28;20648;-65
2021/01/23 04:31:58;;;;;;;23.27;15.90;;;5.20;99.90;;;;;;5019814;28;20623;-65
2021/01/23 04:34:42;;;;;;;24.90;16.50;;;5.20;99.90;;;;;;5021473;28;20648;-65
2021/01/23 04:37:27;;;;;;;22.70;17.40;;;5.20;99.90;;;;;;5009157;28;21247;-65
2021/01/23 04:40:12;;;;;;;19.77;15.77;;;5.20;99.90;;;;;;5020282;28;20679;-65
2021/01/23 04:42:57;;;;;;;24.27;16.40;;;5.20;99.90;;;;;;5015919;28;20595;-65
2021/01/23 04:45:42;;;;;;;23.07;16.80;;;5.20;99.90;;;;;;5016607;28;20639;-65
2021/01/23 04:48:30;;;;;;;22.70;16.50;;;5.20;99.90;;;;;;5025426;28;21351;-65
2021/01/23 04:51:17;;;;;;;23.67;16.37;;;5.20;99.90;;;;;;4998851;28;20643;-65
2021/01/23 04:54:02;;;;;;;23.37;17.10;;;5.20;99.90;;;;;;5008688;28;20703;-66
2021/01/23 04:56:46;;;;;;;22.17;15.93;;;5.00;99.90;;;;;;5023430;28;20638;-66
2021/01/23 04:59:32;;;;;;;24.70;16.87;;;5.10;99.90;;;;;;5024840;28;20756;-65
2021/01/23 05:02:19;;;;;;;24.80;17.53;;;5.10;99.90;;;;;;5024805;28;21003;-65
2021/01/23 05:05:05;;;;;;;23.00;17.87;;;5.10;99.90;;;;;;5012446;28;20630;-65
2021/01/23 05:07:49;;;;;;;23.30;16.90;;;5.00;99.90;;;;;;5011258;28;20584;-66
2021/01/23 05:10:37;;;;;;;22.70;16.30;;;5.10;99.90;;;;;;5023797;28;20631;-66
2021/01/23 05:13:24;;;;;;;24.60;16.67;;;5.00;99.90;;;;;;4993575;28;20643;-66
2021/01/23 05:16:24;;;;;;;22.87;16.07;;;5.00;99.90;;;;;;5024960;28;20592;-66
2021/01/23 05:19:09;;;;;;;25.40;17.70;;;5.00;99.90;;;;;;5008745;28;20666;-65
2021/01/23 05:22:03;;;;;;;24.03;17.40;;;5.00;99.90;;;;;;5029240;28;20697;-66
2021/01/23 05:24:50;;;;;;;24.80;17.50;;;5.00;99.90;;;;;;5011558;28;20990;-66
2021/01/23 05:27:45;;;;;;;26.93;17.43;;;5.00;99.90;;;;;;5016679;28;20624;-66
2021/01/23 05:30:43;;;;;;;27.10;17.20;;;4.90;99.90;;;;;;5010544;28;20604;-66
2021/01/23 05:33:33;;;;;;;22.40;16.53;;;4.90;99.90;;;;;;5015373;28;20645;-66
2021/01/23 05:36:17;;;;;;;23.00;16.00;;;4.90;99.90;;;;;;5028763;28;20626;-65
2021/01/23 05:39:01;;;;;;;23.90;17.37;;;4.90;99.90;;;;;;5020199;28;20798;-65
2021/01/23 05:42:03;;;;;;;23.27;16.00;;;4.90;99.90;;;;;;5015917;28;21164;-65
2021/01/23 05:45:11;;;;;;;28.97;18.67;;;4.90;99.90;;;;;;5011804;28;21217;-65
2021/01/23 05:48:07;;;;;;;25.30;17.57;;;4.90;99.90;;;;;;5009929;28;20627;-65
2021/01/23 05:50:52;;;;;;;25.97;18.17;;;4.90;99.90;;;;;;5008220;28;21199;-66
2021/01/23 05:53:38;;;;;;;27.43;17.50;;;4.90;99.90;;;;;;4998698;28;20634;-65
2021/01/23 05:56:23;;;;;;;26.30;17.90;;;4.90;99.90;;;;;;5018795;28;20670;-65
2021/01/23 05:59:08;;;;;;;25.30;17.77;;;4.90;99.90;;;;;;5010230;28;20662;-64
2021/01/23 06:01:53;;;;;;;25.20;17.93;;;4.90;99.90;;;;;;5006038;28;20611;-65
2021/01/23 06:04:40;;;;;;;28.10;18.40;;;4.90;99.90;;;;;;5007910;28;21418;-65
2021/01/23 06:07:51;;;;;;;27.03;17.03;;;4.80;99.90;;;;;;5011657;28;20722;-63
2021/01/23 06:10:37;;;;;;;25.23;17.80;;;4.90;99.90;;;;;;5014153;28;21227;-66
2021/01/23 06:13:39;;;;;;;26.20;17.63;;;4.90;99.90;;;;;;5005539;28;20714;-64
2021/01/23 06:16:33;;;;;;;26.07;17.13;;;4.80;99.90;;;;;;5020376;28;20707;-65
2021/01/23 06:19:37;;;;;;;30.80;18.70;;;4.80;99.90;;;;;;5013339;28;20650;-66
2021/01/23 06:22:54;;;;;;;28.60;19.10;;;4.80;99.90;;;;;;5009158;28;20979;-66
2021/01/23 06:25:51;;;;;;;27.40;19.90;;;4.80;99.90;;;;;;5015240;28;20638;-65
2021/01/23 06:28:39;;;;;;;30.00;20.53;;;4.80;99.90;;;;;;5017839;28;20658;-65
2021/01/23 06:31:23;;;;;;;28.03;19.07;;;4.80;99.90;;;;;;5014761;28;20591;-65
2021/01/23 06:34:24;;;;;;;28.00;19.00;;;4.70;99.90;;;;;;4996915;28;20707;-65
2021/01/23 06:37:29;;;;;;;28.80;19.47;;;4.70;99.90;;;;;;5001621;28;20611;-65
2021/01/23 06:40:27;;;;;;;26.77;18.53;;;4.70;99.90;;;;;;5009848;28;21355;-65
2021/01/23 06:43:12;;;;;;;32.70;20.20;;;4.70;99.90;;;;;;5016926;28;21812;-64
2021/01/23 06:45:57;;;;;;;29.50;19.33;;;4.70;99.90;;;;;;5008909;28;20727;-65
2021/01/23 06:49:06;;;;;;;27.03;20.33;;;4.60;99.90;;;;;;5007181;28;20659;-65
2021/01/23 06:52:03;;;;;;;27.03;18.33;;;4.60;99.90;;;;;;5006214;28;20685;-64
2021/01/23 06:54:47;;;;;;;31.10;19.93;;;4.60;99.90;;;;;;5000971;28;21210;-65
2021/01/23 06:57:32;;;;;;;30.53;21.50;;;4.50;99.90;;;;;;5015295;28;20599;-65
2021/01/23 07:00:17;;;;;;;30.30;20.50;;;4.50;99.90;;;;;;5018174;28;20612;-66
2021/01/23 07:03:17;;;;;;;30.60;20.63;;;4.50;99.90;;;;;;5004362;28;20631;-66
2021/01/23 07:06:02;;;;;;;32.73;21.20;;;4.50;99.90;;;;;;4988231;28;20646;-63
2021/01/23 07:08:47;;;;;;;31.10;19.87;;;4.50;99.90;;;;;;5018575;28;20671;-66
2021/01/23 07:11:32;;;;;;;34.77;20.87;;;4.50;99.90;;;;;;5018846;28;20642;-66
2021/01/23 07:14:16;;;;;;;33.90;20.60;;;4.50;99.90;;;;;;5000888;28;20640;-66
2021/01/23 07:17:01;;;;;;;32.23;20.50;;;4.50;99.90;;;;;;5013212;28;20626;-66
2021/01/23 07:19:45;;;;;;;31.13;20.63;;;4.50;99.90;;;;;;5001851;28;20795;-64
2021/01/23 07:22:30;;;;;;;29.40;20.67;;;4.50;99.90;;;;;;4987631;28;21005;-65
2021/01/23 07:25:16;;;;;;;30.73;19.77;;;4.50;99.90;;;;;;5009565;28;20647;-65
2021/01/23 07:28:01;;;;;;;33.90;21.63;;;4.40;99.90;;;;;;5007338;28;20630;-63
2021/01/23 07:30:46;;;;;;;32.47;21.23;;;4.40;99.90;;;;;;5000128;28;20603;-65
2021/01/23 07:33:32;;;;;;;31.77;20.57;;;4.40;99.90;;;;;;4999215;28;21565;-65
2021/01/23 07:36:41;;;;;;;33.57;20.33;;;4.40;99.90;;;;;;5001015;28;20654;-64
2021/01/23 07:39:26;;;;;;;31.67;20.13;;;4.40;99.90;;;;;;5001304;28;20655;-65
2021/01/23 07:42:10;;;;;;;32.50;21.53;;;4.40;99.90;;;;;;5004314;28;20674;-66
2021/01/23 07:44:55;;;;;;;32.73;20.27;;;4.30;99.90;;;;;;5000463;28;20648;-64
2021/01/23 07:47:40;;;;;;;36.80;22.30;;;4.30;99.90;;;;;;5014837;28;20942;-65
2021/01/23 07:50:26;;;;;;;31.93;20.20;;;4.40;99.90;;;;;;5004453;28;20631;-65
2021/01/23 07:53:17;;;;;;;32.20;22.20;;;4.40;99.90;;;;;;5009495;28;20677;-63
2021/01/23 07:56:01;;;;;;;35.00;22.00;;;4.50;99.90;;;;;;5001841;28;20596;-65
2021/01/23 07:58:49;;;;;;;29.30;21.13;;;4.50;99.90;;;;;;5004782;28;20737;-65
2021/01/23 08:01:33;;;;;;;37.40;23.60;;;4.50;99.90;;;;;;5014385;28;21263;-65
2021/01/23 08:04:32;;;;;;;31.50;20.97;;;4.50;99.90;;;;;;5004182;28;20651;-65
2021/01/23 08:07:24;;;;;;;34.93;22.33;;;4.50;99.90;;;;;;5021045;28;20603;-65
2021/01/23 08:10:12;;;;;;;32.67;21.83;;;4.50;99.90;;;;;;5007416;28;20701;-67
2021/01/23 08:13:02;;;;;;;30.00;20.30;;;4.50;99.90;;;;;;5000856;28;20615;-68
2021/01/23 08:15:46;;;;;;;30.27;20.43;;;4.50;99.90;;;;;;5014617;28;20655;-67
2021/01/23 08:18:31;;;;;;;31.70;21.60;;;4.50;99.90;;;;;;5010495;28;20661;-67
2021/01/23 08:21:19;;;;;;;30.43;19.63;;;4.50;99.90;;;;;;5020222;28;20628;-67
2021/01/23 08:24:04;;;;;;;30.43;19.10;;;4.50;99.90;;;;;;5002953;28;20639;-67
2021/01/23 08:26:49;;;;;;;31.97;19.73;;;4.50;99.90;;;;;;5003700;28;20591;-68
2021/01/23 08:29:41;;;;;;;36.17;20.30;;;4.50;99.90;;;;;;5021161;28;21233;-68
2021/01/23 08:32:25;;;;;;;31.07;20.47;;;4.60;99.90;;;;;;5007697;28;20639;-67
2021/01/23 08:35:10;;;;;;;27.90;19.40;;;4.60;99.90;;;;;;5001605;28;21001;-67
2021/01/23 08:37:55;;;;;;;32.70;20.50;;;4.60;99.90;;;;;;5001000;28;21817;-68
2021/01/23 08:40:40;;;;;;;28.23;18.83;;;4.60;99.90;;;;;;5000155;28;20635;-67
2021/01/23 08:43:25;;;;;;;31.23;19.37;;;4.60;99.90;;;;;;5005685;28;20592;-67
2021/01/23 08:46:09;;;;;;;28.87;20.03;;;4.70;99.90;;;;;;5003083;28;20630;-67
2021/01/23 08:48:56;;;;;;;31.63;20.13;;;4.70;99.90;;;;;;4999160;28;20639;-66
2021/01/23 08:51:40;;;;;;;32.13;20.63;;;4.70;99.90;;;;;;4998499;28;20772;-66
2021/01/23 08:54:25;;;;;;;36.80;21.17;;;4.80;99.90;;;;;;5016595;28;20690;-67
2021/01/23 08:57:10;;;;;;;29.40;20.50;;;4.80;99.90;;;;;;5001316;28;20619;-67
2021/01/23 08:59:54;;;;;;;33.33;22.40;;;4.70;99.90;;;;;;5016660;28;20737;-67
2021/01/23 09:02:39;;;;;;;30.40;20.10;;;4.70;99.90;;;;;;5003547;28;20975;-67
2021/01/23 09:05:23;;;;;;;30.00;20.30;;;4.70;99.90;;;;;;5002744;28;20643;-67
2021/01/23 09:08:07;;;;;;;34.53;21.80;;;4.80;99.90;;;;;;5008766;28;20611;-67
2021/01/23 09:10:52;;;;;;;30.77;21.80;;;4.80;99.90;;;;;;5011218;28;20611;-67
2021/01/23 09:13:36;;;;;;;31.63;19.97;;;4.80;99.90;;;;;;5000192;28;20638;-67
2021/01/23 09:16:21;;;;;;;30.20;19.60;;;4.70;99.90;;;;;;5020016;28;21131;-67
2021/01/23 09:19:06;;;;;;;30.50;19.77;;;4.80;99.90;;;;;;5025417;28;20642;-67
2021/01/23 09:21:50;;;;;;;33.57;21.67;;;4.90;99.90;;;;;;5003620;28;21260;-67
2021/01/23 09:24:35;;;;;;;28.43;20.43;;;4.90;99.90;;;;;;5024830;28;20630;-67
2021/01/23 09:27:19;;;;;;;31.23;20.30;;;5.00;99.90;;;;;;4999964;28;20959;-67
2021/01/23 09:30:05;;;;;;;34.10;21.33;;;4.90;99.90;;;;;;5009090;28;20686;-67
2021/01/23 09:32:50;;;;;;;38.13;22.00;;;5.00;99.90;;;;;;5000529;28;20727;-67
2021/01/23 09:35:34;;;;;;;32.83;20.73;;;4.90;99.90;;;;;;5002379;28;21317;-67
2021/01/23 09:38:19;;;;;;;30.20;20.83;;;5.10;99.90;;;;;;5002741;28;20659;-67
2021/01/23 09:41:03;;;;;;;30.73;22.00;;;5.00;99.90;;;;;;5012814;28;20663;-68
2021/01/23 09:43:48;;;;;;;31.17;21.30;;;5.00;99.90;;;;;;5040679;28;20640;-68
2021/01/23 09:46:32;;;;;;;29.43;21.20;;;5.00;99.90;;;;;;5021529;28;20600;-67
2021/01/23 09:49:17;;;;;;;29.10;20.60;;;5.10;99.90;;;;;;5028290;28;20650;-67
2021/01/23 09:52:02;;;;;;;29.70;21.03;;;5.10;99.90;;;;;;4999858;28;20738;-67
2021/01/23 09:54:49;;;;;;;32.77;22.90;;;5.20;99.90;;;;;;5004340;28;21318;-67
2021/01/23 09:57:35;;;;;;;31.30;21.70;;;5.20;99.90;;;;;;5012765;28;21156;-67
2021/01/23 10:00:21;;;;;;;30.73;21.40;;;5.20;99.90;;;;;;5005637;28;20659;-67
2021/01/23 10:03:05;;;;;;;35.40;22.00;;;5.20;99.90;;;;;;5006214;28;20588;-67
2021/01/23 10:05:50;;;;;;;29.10;21.07;;;5.20;99.90;;;;;;5008797;28;20634;-67
2021/01/23 10:08:35;;;;;;;31.57;21.53;;;5.10;99.90;;;;;;5013689;28;20666;-66
2021/01/23 10:11:20;;;;;;;33.90;21.30;;;5.20;99.90;;;;;;5008613;28;20716;-68
2021/01/23 10:14:04;;;;;;;31.60;21.57;;;5.10;99.90;;;;;;5005277;28;20635;-67
2021/01/23 10:16:50;;;;;;;37.40;22.43;;;5.10;99.90;;;;;;4998259;28;20584;-66
2021/01/23 10:19:35;;;;;;;33.93;23.53;;;5.10;99.90;;;;;;5017959;28;20655;-67
2021/01/23 10:22:19;;;;;;;31.10;21.73;;;5.20;99.90;;;;;;5007904;28;20635;-67
2021/01/23 10:25:10;;;;;;;29.30;20.63;;;5.20;99.90;;;;;;5003631;28;20655;-67
2021/01/23 10:27:54;;;;;;;30.07;19.73;;;5.20;99.90;;;;;;5006649;28;20603;-68
2021/01/23 10:30:39;;;;;;;32.63;21.03;;;5.00;99.90;;;;;;5007999;28;20630;-67
2021/01/23 10:33:23;;;;;;;28.50;21.23;;;5.10;99.90;;;;;;5008507;28;20615;-68
2021/01/23 10:36:08;;;;;;;34.93;21.60;;;5.20;99.90;;;;;;5007085;28;20635;-67
2021/01/23 10:38:53;;;;;;;28.43;20.03;;;5.20;99.90;;;;;;5001411;28;20663;-67
2021/01/23 10:41:38;;;;;;;34.43;20.80;;;5.40;99.90;;;;;;5008645;28;20995;-67
2021/01/23 10:44:22;;;;;;;33.33;20.27;;;5.50;99.90;;;;;;5009538;28;20722;-68
2021/01/23 10:47:08;;;;;;;31.50;21.00;;;5.60;99.90;;;;;;5007926;28;20986;-67
2021/01/23 10:49:53;;;;;;;27.07;18.77;;;5.50;99.90;;;;;;5012546;28;20654;-69
2021/01/23 10:52:37;;;;;;;30.40;21.17;;;5.60;99.90;;;;;;5010066;28;21224;-68
2021/01/23 10:55:22;;;;;;;29.77;21.73;;;5.60;99.90;;;;;;5004423;28;23380;-68
2021/01/23 10:58:06;;;;;;;31.43;21.37;;;5.50;99.90;;;;;;5009563;28;20596;-69
2021/01/23 11:00:51;;;;;;;29.00;20.03;;;5.60;99.90;;;;;;5010887;28;20682;-69
2021/01/23 11:03:36;;;;;;;28.43;21.33;;;5.70;99.90;;;;;;5014843;28;20634;-68
2021/01/23 11:06:20;;;;;;;27.10;20.20;;;5.70;99.90;;;;;;5009205;28;20608;-68
2021/01/23 11:09:05;;;;;;;28.83;20.87;;;5.80;99.90;;;;;;5015866;28;20670;-68
2021/01/23 11:11:49;;;;;;;30.20;19.87;;;5.90;99.90;;;;;;5007215;28;20591;-69
2021/01/23 11:14:35;;;;;;;28.57;20.00;;;6.00;99.90;;;;;;5004285;28;20655;-67
2021/01/23 11:17:19;;;;;;;31.00;20.50;;;6.20;99.90;;;;;;5020583;28;21196;-69
2021/01/23 11:20:05;;;;;;;30.03;19.53;;;6.30;99.90;;;;;;5009844;28;20659;-69
2021/01/23 11:22:50;;;;;;;28.77;20.10;;;6.30;99.90;;;;;;5016565;28;20634;-68
2021/01/23 11:25:35;;;;;;;28.43;19.47;;;6.40;99.90;;;;;;5010271;28;20766;-71
2021/01/23 11:28:19;;;;;;;27.30;19.17;;;6.40;99.90;;;;;;5006309;28;20662;-69
2021/01/23 11:31:03;;;;;;;26.03;18.53;;;6.40;99.90;;;;;;5003519;28;20726;-69
2021/01/23 11:33:48;;;;;;;28.80;18.43;;;6.50;99.90;;;;;;5005023;28;20647;-69
2021/01/23 11:36:33;;;;;;;25.73;18.90;;;6.60;99.90;;;;;;5002901;28;20611;-69
2021/01/23 11:39:18;;;;;;;23.10;17.70;;;6.70;99.90;;;;;;5015220;28;20659;-69
2021/01/23 11:42:03;;;;;;;26.73;18.20;;;6.70;99.90;;;;;;5008001;28;20693;-68
2021/01/23 11:44:48;;;;;;;25.10;18.43;;;6.80;99.90;;;;;;4998705;28;20635;-69
2021/01/23 11:47:32;;;;;;;27.80;19.07;;;6.80;99.90;;;;;;5002555;28;20693;-69
2021/01/23 11:50:17;;;;;;;35.03;18.53;;;6.80;99.90;;;;;;5015543;28;21196;-69
2021/01/23 11:53:01;;;;;;;25.20;17.47;;;6.80;99.90;;;;;;5003228;28;20599;-68
2021/01/23 11:55:46;;;;;;;24.07;17.70;;;6.80;99.90;;;;;;5002542;28;20685;-69
2021/01/23 11:58:31;;;;;;;27.27;18.37;;;6.80;99.90;;;;;;5006839;28;20639;-69
2021/01/23 12:01:16;;;;;;;25.20;18.03;;;6.70;99.90;;;;;;5010650;28;21366;-69
2021/01/23 12:04:00;;;;;;;25.43;19.13;;;6.80;99.90;;;;;;5004153;28;20718;-68
2021/01/23 12:06:46;;;;;;;24.60;17.67;;;6.70;99.90;;;;;;5008416;28;20588;-69
2021/01/23 12:09:30;;;;;;;27.83;19.07;;;6.70;99.90;;;;;;5006724;28;20706;-69
2021/01/23 12:12:15;;;;;;;29.30;18.97;;;6.70;99.90;;;;;;5008981;28;20703;-67
2021/01/23 12:14:59;;;;;;;26.30;19.70;;;6.70;99.90;;;;;;5012782;28;21225;-67
2021/01/23 12:17:45;;;;;;;25.90;18.73;;;6.70;99.90;;;;;;5013201;28;20710;-67
2021/01/23 12:20:30;;;;;;;27.80;20.33;;;6.70;99.90;;;;;;5018432;28;21431;-67
2021/01/23 12:23:16;;;;;;;29.00;20.37;;;6.70;99.90;;;;;;5007252;28;21106;-68
2021/01/23 12:26:01;;;;;;;27.60;18.27;;;6.70;99.90;;;;;;5007478;28;21088;-67
2021/01/23 12:28:45;;;;;;;23.23;17.50;;;6.80;99.90;;;;;;5005971;28;20718;-68
2021/01/23 12:31:30;;;;;;;22.70;18.20;;;6.80;99.90;;;;;;5009026;28;20595;-68
2021/01/23 12:34:16;;;;;;;23.00;17.00;;;6.80;99.90;;;;;;5008444;28;20640;-68
2021/01/23 12:37:01;;;;;;;23.90;17.83;;;6.90;99.90;;;;;;5012224;28;20634;-68
2021/01/23 12:39:45;;;;;;;21.97;16.23;;;6.90;99.90;;;;;;5007799;28;20662;-69
2021/01/23 12:42:30;;;;;;;23.73;16.33;;;6.90;99.90;;;;;;5002752;28;20659;-69
2021/01/23 12:45:15;;;;;;;20.73;14.97;;;7.00;99.90;;;;;;5008516;28;20643;-68
2021/01/23 12:47:59;;;;;;;17.97;14.10;;;6.90;99.90;;;;;;5011446;28;20579;-68
2021/01/23 12:50:44;;;;;;;19.50;14.80;;;6.90;99.90;;;;;;5003034;28;20588;-67
2021/01/23 12:53:28;;;;;;;16.93;12.50;;;7.00;99.90;;;;;;5012602;28;22318;-68
2021/01/23 12:56:13;;;;;;;14.73;11.47;;;7.00;99.90;;;;;;5004873;28;20680;-66
2021/01/23 12:58:57;;;;;;;11.93;9.90;;;7.00;99.90;;;;;;5012006;28;20786;-69
2021/01/23 13:01:42;;;;;;;13.90;10.13;;;7.00;99.90;;;;;;5007767;28;20648;-70
2021/01/23 13:04:26;;;;;;;13.77;9.83;;;7.10;99.90;;;;;;5007687;28;21241;-70
2021/01/23 13:07:11;;;;;;;11.77;9.67;;;7.10;99.90;;;;;;5003119;28;20591;-69
2021/01/23 13:09:57;;;;;;;16.60;10.53;;;7.20;99.90;;;;;;5014840;28;20738;-67
2021/01/23 13:12:42;;;;;;;11.20;9.80;;;7.20;99.90;;;;;;5006223;28;20627;-66
2021/01/23 13:15:26;;;;;;;10.30;8.60;;;7.20;99.90;;;;;;5009709;28;21107;-67
2021/01/23 13:18:11;;;;;;;10.40;8.37;;;7.30;99.90;;;;;;5005770;28;20746;-67
2021/01/23 13:20:55;;;;;;;11.70;8.83;;;7.30;99.90;;;;;;5004196;28;20623;-67
2021/01/23 13:23:40;;;;;;;10.90;8.70;;;7.30;99.90;;;;;;5011820;28;21180;-68
2021/01/23 13:26:25;;;;;;;12.03;9.43;;;7.40;99.90;;;;;;5003203;28;20591;-67
2021/01/23 13:29:10;;;;;;;11.63;9.30;;;7.60;99.90;;;;;;4999041;28;20655;-66
2021/01/23 13:31:54;;;;;;;11.60;8.80;;;7.70;99.90;;;;;;5004261;28;21154;-67
2021/01/23 13:34:39;;;;;;;10.53;7.97;;;7.80;99.90;;;;;;5007007;28;20636;-67
2021/01/23 13:37:23;;;;;;;10.17;8.80;;;7.90;99.90;;;;;;5010873;28;20603;-67
2021/01/23 13:40:09;;;;;;;10.83;8.27;;;8.00;99.90;;;;;;5011021;28;20648;-68
2021/01/23 13:42:53;;;;;;;9.73;8.00;;;8.00;99.90;;;;;;5027298;28;21061;-67
2021/01/23 13:45:37;;;;;;;11.07;9.37;;;8.00;99.90;;;;;;5012969;28;21205;-67
2021/01/23 13:48:22;;;;;;;11.20;8.80;;;8.10;99.90;;;;;;5004698;28;21155;-67
2021/01/23 13:51:07;;;;;;;10.40;7.90;;;8.20;99.90;;;;;;5005910;28;20662;-68
2021/01/23 13:53:51;;;;;;;9.80;7.20;;;8.30;99.90;;;;;;5005740;28;20636;-67
2021/01/23 13:56:36;;;;;;;10.83;7.87;;;8.40;99.90;;;;;;5010662;28;20600;-69
2021/01/23 13:59:20;;;;;;;10.53;8.17;;;8.60;99.90;;;;;;5008167;28;20647;-69
2021/01/23 14:02:05;;;;;;;10.37;7.90;;;8.70;99.90;;;;;;5004997;28;20655;-69
2021/01/23 14:04:51;;;;;;;8.13;7.30;;;8.70;99.90;;;;;;5002697;28;21360;-67
2021/01/23 14:07:36;;;;;;;10.10;8.20;;;8.80;99.90;;;;;;5008570;28;20677;-66
2021/01/23 14:10:20;;;;;;;11.43;8.07;;;8.90;99.90;;;;;;5000470;22;20720;-75
2021/01/23 14:13:07;;;;;;;14.57;8.50;;;9.00;99.90;;;;;;4987032;28;21104;-75
2021/01/23 14:15:52;;;;;;;9.80;8.67;;;9.00;99.90;;;;;;4979617;28;21257;-73
2021/01/23 14:18:36;;;;;;;10.53;8.20;;;9.00;99.90;;;;;;4986966;28;21125;-72